Time;durP1;ratioP1;P1;durP2;ratioP2;P2;SDS_P1;SDS_P2;PMS_P1;PMS_P2;Temp;Humidity;BMP_temperature;BMP_pressure;BME280_temperature;BME280_humidity;BME280_pressure;Samples;Min_cycle;Max_cycle;Signal;HPM_P1;HPM_P2
2022/06/21 00:01:27;;;;;;;1.55;1.40;;;22.00;53.90;;;;;;5090494;28;20267;-59
2022/06/21 00:03:52;;;;;;;1.60;1.50;;;22.00;54.00;;;;;;5092063;28;20193;-60
2022/06/21 00:06:20;;;;;;;1.55;1.30;;;22.00;54.00;;;;;;5073416;28;20260;-59
2022/06/21 00:08:45;;;;;;;2.83;1.52;;;22.00;54.00;;;;;;5090492;28;20257;-59
2022/06/21 00:11:27;;;;;;;1.58;1.33;;;22.00;54.00;;;;;;5091881;28;20249;-59
2022/06/21 00:13:53;;;;;;;1.90;1.63;;;22.00;54.00;;;;;;5090611;28;20220;-59
2022/06/21 00:16:19;;;;;;;2.63;1.30;;;22.00;54.00;;;;;;5092021;28;20643;-59
2022/06/21 00:18:45;;;;;;;1.90;1.35;;;22.00;54.00;;;;;;5090863;28;20177;-59
2022/06/21 00:21:18;;;;;;;1.35;1.20;;;22.00;54.10;;;;;;5090668;28;20554;-59
2022/06/21 00:23:43;;;;;;;1.40;1.30;;;22.00;54.10;;;;;;5091497;28;20194;-59
2022/06/21 00:26:12;;;;;;;2.75;1.83;;;22.00;54.10;;;;;;5091222;28;20238;-59
2022/06/21 00:28:39;;;;;;;1.88;1.73;;;21.90;54.10;;;;;;5091642;28;20189;-60
2022/06/21 00:31:28;;;;;;;2.28;1.75;;;21.90;54.00;;;;;;5091463;28;20624;-59
2022/06/21 00:33:53;;;;;;;1.83;1.55;;;21.90;54.00;;;;;;5089644;28;20226;-60
2022/06/21 00:36:24;;;;;;;1.85;1.60;;;21.90;54.00;;;;;;5090639;28;20178;-60
2022/06/21 00:38:53;;;;;;;1.63;1.48;;;21.90;54.10;;;;;;5090209;28;20607;-60
2022/06/21 00:41:25;;;;;;;2.90;1.40;;;21.90;54.10;;;;;;5090993;28;20203;-59
2022/06/21 00:43:51;;;;;;;1.58;1.23;;;21.80;54.00;;;;;;5090285;28;20174;-59
2022/06/21 00:46:30;;;;;;;1.67;1.58;;;21.90;54.10;;;;;;5090246;28;20522;-59
2022/06/21 00:48:55;;;;;;;2.85;1.48;;;21.90;54.10;;;;;;5092296;28;20315;-58
2022/06/21 00:51:27;;;;;;;2.05;1.52;;;21.90;54.10;;;;;;5095702;28;20214;-58
2022/06/21 00:54:06;;;;;;;1.48;1.35;;;21.90;54.10;;;;;;5093340;28;20162;-59
2022/06/21 00:56:34;;;;;;;2.25;1.45;;;21.90;54.10;;;;;;5095399;28;20307;-59
2022/06/21 00:59:38;;;;;;;1.48;1.27;;;21.80;54.00;;;;;;5088163;28;20288;-59
2022/06/21 01:02:17;;;;;;;1.23;1.20;;;21.80;54.10;;;;;;5031562;28;20239;-60
2022/06/21 01:04:45;;;;;;;1.35;1.20;;;21.80;54.10;;;;;;5032338;28;20210;-60
2022/06/21 01:07:11;;;;;;;1.88;1.40;;;21.80;54.10;;;;;;5071091;28;20185;-59
2022/06/21 01:09:42;;;;;;;1.48;1.25;;;21.80;54.10;;;;;;5114400;28;20235;-59
2022/06/21 01:12:11;;;;;;;2.05;1.75;;;21.80;54.10;;;;;;5114384;28;20202;-59
2022/06/21 01:14:38;;;;;;;1.80;1.60;;;21.80;54.10;;;;;;5115184;28;20204;-59
2022/06/21 01:17:04;;;;;;;2.42;1.55;;;21.80;54.10;;;;;;5113368;28;20204;-59
2022/06/21 01:19:37;;;;;;;1.80;1.50;;;21.80;54.10;;;;;;5114098;28;20264;-59
2022/06/21 01:22:29;;;;;;;1.60;1.50;;;21.80;54.10;;;;;;5112957;28;20299;-59
2022/06/21 01:25:36;;;;;;;1.73;1.40;;;21.80;54.10;;;;;;5105488;28;20193;-59
2022/06/21 01:28:02;;;;;;;3.13;1.50;;;21.80;54.20;;;;;;5086931;27;20597;-59
2022/06/21 01:30:28;;;;;;;1.20;1.10;;;21.70;54.10;;;;;;5114300;28;20268;-60
2022/06/21 01:32:55;;;;;;;1.58;1.48;;;21.70;54.10;;;;;;5115038;28;20513;-60
2022/06/21 01:35:30;;;;;;;1.60;1.33;;;21.70;54.10;;;;;;5114862;28;20593;-60
2022/06/21 01:37:56;;;;;;;1.42;1.33;;;21.70;54.10;;;;;;5113893;28;20602;-60
2022/06/21 01:40:25;;;;;;;1.30;1.20;;;21.70;54.10;;;;;;5114964;28;20192;-60
2022/06/21 01:42:56;;;;;;;1.40;1.30;;;21.70;54.10;;;;;;5113049;28;20565;-60
2022/06/21 01:45:24;;;;;;;1.15;1.02;;;21.70;54.10;;;;;;5113828;28;20177;-59
2022/06/21 01:47:52;;;;;;;2.20;1.40;;;21.70;54.10;;;;;;5112991;28;20659;-59
2022/06/21 01:50:18;;;;;;;1.65;1.42;;;21.70;54.10;;;;;;5113072;28;20546;-59
2022/06/21 01:52:44;;;;;;;1.52;1.42;;;21.70;54.10;;;;;;5113124;28;20177;-59
2022/06/21 01:55:40;;;;;;;1.77;1.20;;;21.70;54.10;;;;;;5114584;28;20169;-59
2022/06/21 01:58:05;;;;;;;2.15;1.40;;;21.70;54.10;;;;;;5110089;28;20635;-60
2022/06/21 02:00:31;;;;;;;1.60;1.27;;;21.70;54.10;;;;;;5092798;28;20184;-60
2022/06/21 02:02:59;;;;;;;1.27;1.17;;;21.70;54.10;;;;;;5092244;28;20691;-60
2022/06/21 02:05:37;;;;;;;1.30;1.10;;;21.70;54.10;;;;;;5091824;28;20589;-60
2022/06/21 02:08:07;;;;;;;1.50;1.40;;;21.60;54.10;;;;;;5093720;28;20181;-59
2022/06/21 02:10:36;;;;;;;1.40;1.30;;;21.60;54.10;;;;;;5092917;28;20182;-59
2022/06/21 02:13:27;;;;;;;1.20;1.10;;;21.60;54.20;;;;;;5091878;28;20177;-59
2022/06/21 02:16:01;;;;;;;2.08;1.40;;;21.60;54.10;;;;;;5077785;28;20181;-59
2022/06/21 02:18:29;;;;;;;2.15;1.30;;;21.60;54.10;;;;;;5075415;28;20186;-59
2022/06/21 02:21:04;;;;;;;1.88;1.60;;;21.60;54.10;;;;;;5092295;28;20182;-59
2022/06/21 02:23:30;;;;;;;1.25;1.15;;;21.60;54.10;;;;;;5093310;28;20226;-59
2022/06/21 02:25:56;;;;;;;1.42;1.30;;;21.60;54.10;;;;;;5092111;28;20165;-59
2022/06/21 02:28:22;;;;;;;1.35;1.20;;;21.60;54.10;;;;;;5076442;28;20178;-59
2022/06/21 02:30:49;;;;;;;2.38;1.40;;;21.60;54.10;;;;;;5092634;28;20181;-60
2022/06/21 02:33:18;;;;;;;1.30;1.20;;;21.60;54.10;;;;;;5092594;28;20174;-60
2022/06/21 02:36:00;;;;;;;2.03;1.27;;;21.60;54.20;;;;;;5092819;28;20624;-60
2022/06/21 02:38:32;;;;;;;1.52;1.10;;;21.60;54.20;;;;;;5094272;28;20544;-60
2022/06/21 02:41:20;;;;;;;1.45;1.35;;;21.60;54.20;;;;;;5092024;28;20185;-60
2022/06/21 02:43:49;;;;;;;1.40;1.30;;;21.50;54.10;;;;;;5092655;28;20198;-60
2022/06/21 02:46:18;;;;;;;2.30;1.60;;;21.50;54.10;;;;;;5075770;28;20248;-59
2022/06/21 02:49:00;;;;;;;1.30;1.20;;;21.50;54.10;;;;;;5093969;28;20251;-59
2022/06/21 02:51:28;;;;;;;1.55;1.42;;;21.50;54.10;;;;;;5092848;28;20173;-59
2022/06/21 02:54:02;;;;;;;1.60;1.40;;;21.50;54.10;;;;;;5075362;28;20174;-59
2022/06/21 02:56:34;;;;;;;1.10;1.00;;;21.50;54.10;;;;;;5093175;28;20175;-59
2022/06/21 02:59:00;;;;;;;2.20;1.27;;;21.50;54.10;;;;;;5104797;28;20188;-59
2022/06/21 03:01:38;;;;;;;1.45;1.35;;;21.50;54.10;;;;;;5111983;28;20216;-60
2022/06/21 03:04:04;;;;;;;2.33;1.10;;;21.50;54.20;;;;;;5113283;28;20260;-61
2022/06/21 03:06:30;;;;;;;1.33;1.20;;;21.50;54.10;;;;;;5113042;28;20189;-61
2022/06/21 03:09:01;;;;;;;1.75;1.27;;;21.50;54.10;;;;;;5112090;28;20181;-60
2022/06/21 03:11:28;;;;;;;0.98;0.95;;;21.40;54.10;;;;;;5112331;28;20177;-60
2022/06/21 03:13:55;;;;;;;1.90;1.40;;;21.50;54.10;;;;;;5112330;28;20188;-59
2022/06/21 03:16:20;;;;;;;2.50;1.17;;;21.40;54.10;;;;;;5111904;28;20169;-59
2022/06/21 03:18:53;;;;;;;1.75;1.10;;;21.40;54.00;;;;;;5112164;28;20184;-59
2022/06/21 03:21:33;;;;;;;1.42;1.33;;;21.40;54.10;;;;;;5112668;28;20185;-59
2022/06/21 03:23:59;;;;;;;1.25;1.10;;;21.40;54.10;;;;;;5113513;28;20208;-60
2022/06/21 03:26:26;;;;;;;1.10;1.00;;;21.40;54.10;;;;;;5113873;28;20221;-60
2022/06/21 03:28:52;;;;;;;1.27;1.23;;;21.40;54.10;;;;;;5112848;28;20177;-60
2022/06/21 03:31:28;;;;;;;1.30;1.00;;;21.40;54.10;;;;;;5113491;28;20177;-60
2022/06/21 03:33:55;;;;;;;1.35;1.25;;;21.40;54.10;;;;;;5113455;28;20181;-60
2022/06/21 03:36:22;;;;;;;1.23;1.10;;;21.40;54.10;;;;;;5111827;28;20176;-60
2022/06/21 03:38:51;;;;;;;1.98;1.20;;;21.40;54.10;;;;;;5113383;28;20252;-60
2022/06/21 03:44:24;;;;;;;1.20;1.10;;;21.40;54.10;;;;;;5111749;28;20714;-59
2022/06/21 03:46:52;;;;;;;1.20;1.10;;;21.40;54.10;;;;;;5112351;28;20659;-59
2022/06/21 03:49:31;;;;;;;1.88;1.30;;;21.40;54.00;;;;;;5113409;28;20173;-59
2022/06/21 03:51:57;;;;;;;1.33;1.23;;;21.40;54.10;;;;;;5111858;28;20183;-59
2022/06/21 03:54:31;;;;;;;1.40;1.30;;;21.40;54.10;;;;;;5112420;28;20173;-60
2022/06/21 03:57:21;;;;;;;1.77;1.35;;;21.40;54.10;;;;;;5111352;28;20180;-59
2022/06/21 03:59:48;;;;;;;1.33;1.27;;;21.40;54.00;;;;;;5094297;28;20177;-60
2022/06/21 04:02:31;;;;;;;1.10;0.90;;;21.40;54.00;;;;;;5091354;28;20597;-60
2022/06/21 04:05:05;;;;;;;1.30;1.20;;;21.40;54.00;;;;;;5090929;28;20174;-60
2022/06/21 04:07:41;;;;;;;1.00;0.98;;;21.40;54.00;;;;;;5093010;28;20224;-60
2022/06/21 04:10:06;;;;;;;1.00;1.00;;;21.40;54.00;;;;;;5092614;28;20539;-59
2022/06/21 04:12:40;;;;;;;1.25;1.10;;;21.40;54.00;;;;;;5092256;28;20170;-59
2022/06/21 04:15:12;;;;;;;1.65;1.30;;;21.40;54.00;;;;;;5093118;28;20185;-60
2022/06/21 04:18:03;;;;;;;1.58;1.10;;;21.40;53.90;;;;;;5090731;28;20643;-59
2022/06/21 04:20:43;;;;;;;1.10;1.00;;;21.40;54.60;;;;;;5091845;28;20235;-60
2022/06/21 04:23:11;;;;;;;1.52;1.20;;;21.40;53.90;;;;;;5092845;28;20213;-60
2022/06/21 04:25:59;;;;;;;1.25;1.15;;;21.40;54.00;;;;;;5096049;28;20165;-60
2022/06/21 04:28:41;;;;;;;1.17;1.08;;;21.40;53.90;;;;;;5096806;28;20190;-60
2022/06/21 04:31:31;;;;;;;0.95;0.95;;;21.40;53.90;;;;;;5095594;28;20174;-59
2022/06/21 04:33:59;;;;;;;1.40;1.10;;;21.40;53.90;;;;;;5066536;28;20317;-60
2022/06/21 04:36:32;;;;;;;1.27;1.20;;;21.40;53.90;;;;;;5078659;28;20598;-60
2022/06/21 04:39:10;;;;;;;1.65;1.00;;;21.40;53.90;;;;;;5094587;28;20205;-60
2022/06/21 04:41:43;;;;;;;1.65;1.15;;;21.40;53.90;;;;;;5095147;28;20181;-60
2022/06/21 04:44:42;;;;;;;1.55;0.98;;;21.40;53.90;;;;;;5095326;28;20227;-60
2022/06/21 04:47:15;;;;;;;0.95;0.95;;;21.40;53.90;;;;;;5083768;28;20192;-59
2022/06/21 04:49:46;;;;;;;1.42;1.10;;;21.40;53.90;;;;;;5095147;28;20178;-60
2022/06/21 04:52:16;;;;;;;1.40;1.30;;;21.40;53.80;;;;;;5096383;28;20260;-59
2022/06/21 04:54:42;;;;;;;1.25;1.15;;;21.40;53.90;;;;;;5077772;28;20193;-59
2022/06/21 04:57:21;;;;;;;1.15;1.05;;;21.40;53.90;;;;;;5096091;28;20162;-60
2022/06/21 04:59:49;;;;;;;1.35;1.25;;;21.40;53.80;;;;;;5112173;28;20267;-60
2022/06/21 05:02:24;;;;;;;1.27;1.17;;;21.40;53.80;;;;;;5114925;28;20252;-60
2022/06/21 05:05:03;;;;;;;1.38;1.27;;;21.40;53.80;;;;;;5116248;28;20180;-60
2022/06/21 05:07:30;;;;;;;1.17;1.05;;;21.50;53.80;;;;;;5114757;28;20173;-60
2022/06/21 05:09:57;;;;;;;1.15;1.05;;;21.50;53.80;;;;;;5116294;28;20181;-59
2022/06/21 05:12:42;;;;;;;1.40;1.30;;;21.40;53.80;;;;;;5115279;28;20173;-59
2022/06/21 05:15:16;;;;;;;1.30;1.20;;;21.50;53.80;;;;;;5115437;28;20181;-60
2022/06/21 05:17:44;;;;;;;1.25;1.13;;;21.50;53.80;;;;;;5115129;28;20169;-60
2022/06/21 05:20:15;;;;;;;2.92;1.20;;;21.50;53.80;;;;;;5115004;28;20702;-60
2022/06/21 05:22:47;;;;;;;1.35;1.05;;;21.50;53.80;;;;;;5114128;28;20240;-60
2022/06/21 05:25:18;;;;;;;1.58;1.00;;;21.50;53.80;;;;;;5116121;28;20169;-60
2022/06/21 05:28:22;;;;;;;0.98;0.88;;;21.50;53.80;;;;;;5114309;28;20661;-60
2022/06/21 05:31:08;;;;;;;1.33;1.13;;;21.40;53.80;;;;;;5111477;28;20181;-61
2022/06/21 05:33:39;;;;;;;1.17;1.17;;;21.50;53.80;;;;;;5115054;28;20204;-60
2022/06/21 05:36:08;;;;;;;1.33;1.00;;;21.50;53.80;;;;;;5113354;28;20161;-60
2022/06/21 05:38:35;;;;;;;1.10;1.00;;;21.50;53.80;;;;;;5115819;28;20623;-60
2022/06/21 05:41:29;;;;;;;1.02;1.00;;;21.50;53.90;;;;;;5114683;28;20177;-60
2022/06/21 05:43:58;;;;;;;1.67;1.40;;;21.50;53.80;;;;;;5113751;28;20230;-60
2022/06/21 05:46:23;;;;;;;1.80;1.38;;;21.50;53.80;;;;;;5115657;28;20169;-59
2022/06/21 05:48:49;;;;;;;0.98;0.98;;;21.50;53.80;;;;;;5114109;28;20169;-59
2022/06/21 05:51:16;;;;;;;1.05;0.95;;;21.50;53.80;;;;;;5113611;28;20165;-59
2022/06/21 05:53:45;;;;;;;1.50;1.10;;;21.50;53.80;;;;;;5114229;28;20177;-59
2022/06/21 05:56:13;;;;;;;1.60;1.30;;;21.50;53.80;;;;;;5114800;28;20177;-59
2022/06/21 05:58:42;;;;;;;1.13;1.02;;;21.50;53.80;;;;;;5107110;28;20545;-61
2022/06/21 06:01:10;;;;;;;1.13;1.02;;;21.50;53.80;;;;;;5077059;28;20174;-60
2022/06/21 06:04:10;;;;;;;1.13;0.98;;;21.50;54.40;;;;;;5094172;28;20209;-60
2022/06/21 06:06:36;;;;;;;0.98;0.98;;;21.50;53.80;;;;;;5056361;28;20181;-60
2022/06/21 06:09:13;;;;;;;1.20;1.10;;;21.50;53.70;;;;;;5093541;28;20206;-60
2022/06/21 06:12:00;;;;;;;1.52;1.02;;;21.50;53.70;;;;;;5077030;28;20223;-59
2022/06/21 06:14:37;;;;;;;1.05;0.95;;;21.50;53.80;;;;;;5093821;28;20198;-59
2022/06/21 06:17:05;;;;;;;1.23;0.98;;;21.50;53.70;;;;;;5093559;28;20181;-59
2022/06/21 06:19:39;;;;;;;1.00;0.90;;;21.50;53.70;;;;;;5093013;28;20253;-59
2022/06/21 06:22:13;;;;;;;0.85;0.80;;;21.50;53.70;;;;;;5094437;28;20201;-60
2022/06/21 06:25:16;;;;;;;1.42;1.00;;;21.60;53.80;;;;;;5093761;28;20184;-60
2022/06/21 06:28:04;;;;;;;1.52;1.10;;;21.60;54.40;;;;;;5092579;28;20178;-59
2022/06/21 06:30:59;;;;;;;1.42;1.33;;;21.60;53.80;;;;;;5092868;28;20228;-60
2022/06/21 06:33:32;;;;;;;1.30;1.00;;;21.60;53.80;;;;;;5081679;28;20276;-60
2022/06/21 06:35:58;;;;;;;1.88;0.98;;;21.60;53.80;;;;;;5072797;28;20178;-60
2022/06/21 06:38:24;;;;;;;1.17;0.90;;;21.60;53.80;;;;;;5073326;28;20175;-59
2022/06/21 06:40:56;;;;;;;2.55;1.13;;;21.60;53.70;;;;;;5073559;28;20239;-59
2022/06/21 06:43:32;;;;;;;1.98;0.90;;;21.60;53.80;;;;;;5072736;28;20241;-58
2022/06/21 06:45:58;;;;;;;5.60;1.10;;;21.60;53.80;;;;;;5071088;28;20174;-58
2022/06/21 06:48:26;;;;;;;1.33;0.85;;;21.70;53.80;;;;;;5073659;28;20173;-57
2022/06/21 06:50:54;;;;;;;2.45;1.20;;;21.70;53.80;;;;;;5072317;28;20178;-54
2022/06/21 06:53:29;;;;;;;2.70;1.10;;;21.70;53.80;;;;;;5072986;28;20193;-57
2022/06/21 06:56:07;;;;;;;1.88;1.25;;;21.70;53.80;;;;;;5072466;28;20633;-58
2022/06/21 06:58:39;;;;;;;1.98;0.98;;;21.70;53.70;;;;;;5072644;28;20514;-57
2022/06/21 07:01:20;;;;;;;2.10;1.10;;;21.80;53.70;;;;;;5071681;28;20180;-58
2022/06/21 07:03:48;;;;;;;2.22;1.00;;;21.80;53.80;;;;;;5071722;28;20226;-59
2022/06/21 07:06:18;;;;;;;3.50;1.02;;;21.80;53.70;;;;;;5072490;28;20175;-59
2022/06/21 07:08:48;;;;;;;2.95;1.17;;;21.80;53.80;;;;;;5071438;28;20186;-58
2022/06/21 07:11:39;;;;;;;0.93;0.90;;;21.80;53.90;;;;;;5072474;28;20228;-57
2022/06/21 07:14:24;;;;;;;2.53;1.15;;;21.80;53.80;;;;;;5071336;28;20185;-58
2022/06/21 07:16:55;;;;;;;1.90;1.30;;;21.80;53.70;;;;;;5072072;28;20522;-58
2022/06/21 07:19:21;;;;;;;3.17;1.55;;;21.80;53.80;;;;;;5072218;28;20182;-57
2022/06/21 07:21:47;;;;;;;4.32;1.05;;;21.80;53.80;;;;;;5070921;28;20643;-59
2022/06/21 07:24:15;;;;;;;3.67;1.15;;;21.80;53.80;;;;;;5071985;28;20170;-58
2022/06/21 07:26:47;;;;;;;3.55;1.60;;;21.80;53.90;;;;;;5073092;28;20261;-58
2022/06/21 07:29:29;;;;;;;1.20;0.90;;;21.80;53.80;;;;;;5071449;28;20228;-58
2022/06/21 07:32:01;;;;;;;1.38;1.17;;;21.80;53.90;;;;;;5072667;28;20186;-59
2022/06/21 07:34:40;;;;;;;2.60;1.33;;;21.80;53.90;;;;;;5072083;28;20197;-59
2022/06/21 07:37:25;;;;;;;2.15;1.05;;;21.90;53.90;;;;;;5071642;28;20228;-58
2022/06/21 07:39:57;;;;;;;3.90;1.40;;;21.80;53.90;;;;;;5071622;28;20174;-59
2022/06/21 07:42:43;;;;;;;2.92;1.10;;;21.80;53.90;;;;;;5071212;28;20206;-58
2022/06/21 07:45:26;;;;;;;1.50;1.33;;;21.90;53.90;;;;;;5072746;28;20184;-58
2022/06/21 07:48:16;;;;;;;4.15;1.40;;;21.90;53.90;;;;;;5071558;28;20185;-58
2022/06/21 07:50:47;;;;;;;1.65;1.10;;;21.90;53.90;;;;;;5072000;28;20178;-58
2022/06/21 07:53:22;;;;;;;2.83;1.10;;;21.90;53.90;;;;;;5071519;28;20174;-58
2022/06/21 07:56:23;;;;;;;1.40;1.10;;;21.80;53.90;;;;;;5071409;28;20178;-58
2022/06/21 07:59:13;;;;;;;1.27;1.10;;;21.90;53.90;;;;;;5062225;28;20225;-58
2022/06/21 08:08:54;;;;;;;2.92;1.10;;;21.90;53.80;;;;;;5071970;28;20215;-58
2022/06/21 08:11:23;;;;;;;2.80;1.17;;;22.00;53.80;;;;;;5071471;28;20182;-58
2022/06/21 08:13:49;;;;;;;2.17;1.10;;;22.00;53.80;;;;;;5071107;28;20197;-58
2022/06/21 08:16:19;;;;;;;1.80;1.25;;;22.00;53.80;;;;;;5072646;28;20625;-58
2022/06/21 08:18:53;;;;;;;1.88;1.00;;;22.00;53.70;;;;;;5071419;28;20210;-58
2022/06/21 08:21:21;;;;;;;2.28;1.10;;;22.00;53.70;;;;;;5071603;28;20201;-58
2022/06/21 08:23:53;;;;;;;2.28;1.25;;;22.10;53.70;;;;;;5071775;28;20274;-59
2022/06/21 08:26:31;;;;;;;2.58;1.05;;;22.10;53.60;;;;;;5072654;28;20179;-59
2022/06/21 08:29:22;;;;;;;1.70;1.15;;;22.10;53.60;;;;;;5070949;28;20632;-58
2022/06/21 08:31:59;;;;;;;2.38;1.00;;;22.10;53.60;;;;;;5070515;28;20230;-58
2022/06/21 08:34:29;;;;;;;2.05;1.17;;;22.10;53.60;;;;;;5072343;28;20698;-58
2022/06/21 08:36:56;;;;;;;1.38;1.00;;;22.10;53.50;;;;;;5072004;28;20311;-59
2022/06/21 08:39:32;;;;;;;1.40;1.02;;;22.10;53.50;;;;;;5071548;28;20637;-59
2022/06/21 08:42:38;;;;;;;1.83;0.93;;;22.20;53.50;;;;;;5071102;28;20251;-59
2022/06/21 08:45:45;;;;;;;2.10;1.13;;;22.20;53.50;;;;;;5071554;28;20181;-58
2022/06/21 08:48:29;;;;;;;1.35;1.25;;;22.20;53.50;;;;;;5030104;28;20638;-58
2022/06/21 08:51:06;;;;;;;1.83;1.17;;;22.20;53.40;;;;;;5030013;28;20219;-57
2022/06/21 08:53:46;;;;;;;2.70;0.80;;;22.20;53.40;;;;;;5057385;28;20667;-58
2022/06/21 08:56:32;;;;;;;1.90;1.08;;;22.20;53.40;;;;;;5072140;28;20316;-59
2022/06/21 08:59:23;;;;;;;2.78;1.10;;;22.20;53.40;;;;;;5070408;28;20178;-58
2022/06/21 09:01:52;;;;;;;1.52;1.20;;;22.20;53.40;;;;;;5071656;28;20219;-58
2022/06/21 09:04:41;;;;;;;1.52;0.90;;;22.30;53.50;;;;;;5070882;28;20189;-58
2022/06/21 09:07:15;;;;;;;2.08;1.00;;;22.20;53.50;;;;;;5070297;28;20174;-58
2022/06/21 09:10:11;;;;;;;1.42;1.00;;;22.30;53.40;;;;;;5073010;28;20227;-58
2022/06/21 09:13:04;;;;;;;1.63;1.05;;;22.30;53.40;;;;;;5074363;28;20269;-60
2022/06/21 09:15:49;;;;;;;0.70;0.70;;;22.30;53.40;;;;;;5046206;28;20228;-60
2022/06/21 09:18:33;;;;;;;1.58;1.02;;;22.40;53.30;;;;;;5074501;28;20185;-62
2022/06/21 09:21:06;;;;;;;2.50;1.20;;;22.40;53.30;;;;;;5074263;28;20548;-60
2022/06/21 09:23:37;;;;;;;2.38;0.90;;;22.40;53.40;;;;;;5074320;28;20214;-60
2022/06/21 09:26:07;;;;;;;1.83;0.60;;;22.40;53.30;;;;;;5074215;28;20182;-62
2022/06/21 09:28:50;;;;;;;1.70;0.90;;;22.50;53.40;;;;;;5074683;28;20178;-62
2022/06/21 09:31:48;;;;;;;3.40;1.13;;;22.50;54.10;;;;;;5073384;28;20191;-63
2022/06/21 09:34:25;;;;;;;1.40;1.30;;;22.50;53.40;;;;;;5040435;28;20320;-62
2022/06/21 09:36:57;;;;;;;1.95;1.30;;;22.50;53.50;;;;;;5074993;28;20201;-62
2022/06/21 09:39:59;;;;;;;2.53;1.15;;;22.50;53.60;;;;;;5074210;28;20170;-59
2022/06/21 09:42:51;;;;;;;2.40;0.90;;;22.50;53.50;;;;;;5074594;28;20304;-62
2022/06/21 09:45:27;;;;;;;1.63;1.08;;;22.50;53.40;;;;;;5074252;28;20177;-61
2022/06/21 09:48:17;;;;;;;1.45;1.00;;;22.50;53.40;;;;;;5079833;28;20221;-60
2022/06/21 09:50:58;;;;;;;3.22;1.08;;;22.50;53.40;;;;;;5102765;28;20262;-60
2022/06/21 09:53:50;;;;;;;2.92;1.05;;;22.50;53.50;;;;;;5110114;28;20190;-60
2022/06/21 09:56:42;;;;;;;1.40;0.98;;;22.50;53.60;;;;;;5110984;28;20209;-61
2022/06/21 09:59:14;;;;;;;1.63;0.90;;;22.50;53.50;;;;;;5094040;28;20530;-61
2022/06/21 10:02:15;;;;;;;1.88;1.00;;;22.50;53.50;;;;;;5093493;28;20290;-61
2022/06/21 10:05:03;;;;;;;3.40;1.10;;;22.50;53.60;;;;;;5080892;28;20185;-61
2022/06/21 10:08:11;;;;;;;0.98;0.80;;;22.50;53.50;;;;;;5115021;28;20687;-61
2022/06/21 10:10:50;;;;;;;1.00;0.90;;;22.50;53.60;;;;;;5113148;28;20260;-60
2022/06/21 10:13:25;;;;;;;2.13;1.00;;;22.50;53.60;;;;;;5100156;28;20553;-61
2022/06/21 10:16:19;;;;;;;1.33;0.93;;;22.50;53.50;;;;;;5093371;28;20231;-61
2022/06/21 10:18:55;;;;;;;3.03;1.10;;;22.50;53.60;;;;;;5093017;28;20629;-61
2022/06/21 10:21:43;;;;;;;1.27;0.82;;;22.40;53.60;;;;;;5093545;28;20268;-61
2022/06/21 10:24:25;;;;;;;0.93;0.85;;;22.50;53.60;;;;;;5072549;28;20183;-61
2022/06/21 10:27:14;;;;;;;0.90;0.82;;;22.50;53.50;;;;;;5072721;28;20598;-61
2022/06/21 10:29:59;;;;;;;1.88;0.70;;;22.50;53.50;;;;;;5072951;28;20185;-61
2022/06/21 10:32:50;;;;;;;1.95;1.27;;;22.60;53.50;;;;;;5072493;28;20174;-61
2022/06/21 10:35:53;;;;;;;1.55;0.90;;;22.60;53.40;;;;;;5074142;28;20756;-62
2022/06/21 10:38:27;;;;;;;1.00;0.90;;;22.70;53.30;;;;;;5073029;28;20239;-62
2022/06/21 10:41:11;;;;;;;1.65;0.90;;;22.70;53.20;;;;;;5073548;28;20645;-62
2022/06/21 10:43:58;;;;;;;1.00;0.90;;;22.70;53.10;;;;;;5072585;28;20213;-61
2022/06/21 10:46:38;;;;;;;1.13;0.60;;;22.70;53.20;;;;;;5073111;28;20174;-61
2022/06/21 10:49:23;;;;;;;1.75;0.70;;;22.70;53.10;;;;;;5073961;28;20230;-61
2022/06/21 10:52:27;;;;;;;3.08;1.00;;;22.70;53.20;;;;;;5071953;28;20181;-59
2022/06/21 10:55:21;;;;;;;1.40;0.80;;;22.80;53.20;;;;;;5072227;28;20534;-62
2022/06/21 10:58:00;;;;;;;2.83;1.25;;;22.80;53.10;;;;;;5072540;28;20167;-62
2022/06/21 11:03:54;;;;;;;2.63;0.95;;;22.80;53.10;;;;;;5072385;28;20371;-62
2022/06/21 11:06:44;;;;;;;2.17;0.93;;;22.90;53.10;;;;;;5071908;28;20177;-62
2022/06/21 11:09:38;;;;;;;2.17;1.00;;;22.90;53.10;;;;;;5072324;28;20181;-61
2022/06/21 11:15:27;;;;;;;1.85;0.73;;;22.90;53.30;;;;;;5072246;28;20220;-61
2022/06/21 11:18:13;;;;;;;1.15;0.70;;;22.90;53.30;;;;;;5071773;28;20175;-63
2022/06/21 11:20:58;;;;;;;3.70;1.00;;;22.90;53.30;;;;;;5072645;28;20184;-61
2022/06/21 11:24:01;;;;;;;3.78;0.82;;;22.90;53.20;;;;;;5072342;28;20641;-61
2022/06/21 11:26:49;;;;;;;3.08;1.08;;;22.90;53.10;;;;;;5073540;28;20180;-62
2022/06/21 11:29:33;;;;;;;1.42;0.88;;;23.00;53.10;;;;;;5071995;28;20171;-61
2022/06/21 11:32:08;;;;;;;2.78;0.85;;;23.00;53.00;;;;;;5072363;28;20646;-61
2022/06/21 11:34:58;;;;;;;4.20;0.90;;;22.90;53.10;;;;;;5071221;28;20192;-63
2022/06/21 11:37:35;;;;;;;1.52;0.63;;;22.80;53.20;;;;;;5072045;28;20177;-63
2022/06/21 11:40:22;;;;;;;1.40;0.80;;;22.80;53.30;;;;;;5073055;28;20287;-62
2022/06/21 11:42:53;;;;;;;2.97;0.73;;;22.80;53.30;;;;;;5071761;28;20213;-63
2022/06/21 11:45:18;;;;;;;2.92;0.82;;;22.80;53.40;;;;;;5071930;28;20182;-62
2022/06/21 11:47:56;;;;;;;1.50;0.80;;;22.80;53.30;;;;;;5072590;28;20177;-61
2022/06/21 11:50:28;;;;;;;1.08;0.80;;;22.90;53.20;;;;;;5071834;28;20198;-61
2022/06/21 11:53:20;;;;;;;1.40;0.75;;;23.00;53.20;;;;;;5072592;28;20178;-61
2022/06/21 11:55:55;;;;;;;2.70;0.90;;;23.00;53.00;;;;;;5052738;28;20725;-62
2022/06/21 11:58:42;;;;;;;2.38;0.80;;;23.00;53.10;;;;;;5071754;28;20182;-61
2022/06/21 12:01:15;;;;;;;0.95;0.63;;;23.00;53.00;;;;;;5071485;28;20186;-62
2022/06/21 12:04:11;;;;;;;1.95;0.80;;;23.00;53.00;;;;;;5071646;28;20210;-62
2022/06/21 12:06:58;;;;;;;1.33;0.88;;;23.10;52.90;;;;;;5071496;28;20225;-62
2022/06/21 12:09:41;;;;;;;2.15;0.77;;;23.10;52.80;;;;;;5070951;28;20236;-62
2022/06/21 12:12:31;;;;;;;1.27;0.60;;;23.10;52.70;;;;;;5071354;28;20552;-62
2022/06/21 12:15:12;;;;;;;2.83;0.80;;;23.10;52.70;;;;;;5071271;28;20616;-61
2022/06/21 12:17:58;;;;;;;1.33;0.75;;;23.10;52.80;;;;;;5070490;28;20664;-61
2022/06/21 12:20:29;;;;;;;1.83;0.73;;;23.00;52.80;;;;;;5071287;28;20171;-62
2022/06/21 12:23:19;;;;;;;2.13;0.75;;;23.00;52.80;;;;;;5072011;28;20221;-62
2022/06/21 12:25:45;;;;;;;1.55;0.57;;;23.10;53.50;;;;;;5070875;28;20185;-62
2022/06/21 12:28:15;;;;;;;2.00;0.98;;;23.10;52.80;;;;;;5071203;28;20261;-62
2022/06/21 12:30:40;;;;;;;1.35;0.77;;;23.10;52.80;;;;;;5071352;28;20215;-62
2022/06/21 12:33:06;;;;;;;1.85;0.90;;;23.10;52.80;;;;;;5071392;28;20624;-62
2022/06/21 12:35:56;;;;;;;1.23;0.70;;;23.10;52.80;;;;;;5071147;28;20648;-63
2022/06/21 12:38:34;;;;;;;0.73;0.60;;;23.10;52.70;;;;;;5071582;28;20182;-62
2022/06/21 12:41:07;;;;;;;0.70;0.60;;;23.20;52.80;;;;;;5072100;28;20178;-62
2022/06/21 12:43:38;;;;;;;3.20;0.70;;;23.10;52.70;;;;;;5071344;28;20239;-62
2022/06/21 12:46:10;;;;;;;0.93;0.50;;;23.20;52.70;;;;;;5073874;28;20324;-61
2022/06/21 12:48:46;;;;;;;2.17;0.73;;;23.20;52.60;;;;;;5075994;28;20214;-62
2022/06/21 12:51:18;;;;;;;1.33;0.70;;;23.20;52.60;;;;;;5075449;28;20193;-61
2022/06/21 12:54:10;;;;;;;0.80;0.80;;;23.20;52.70;;;;;;5074579;28;20171;-62
2022/06/21 12:56:39;;;;;;;0.82;0.70;;;23.20;52.70;;;;;;5074641;28;20194;-62
2022/06/21 12:59:38;;;;;;;1.13;0.68;;;23.20;52.60;;;;;;5075162;28;20171;-62
2022/06/21 13:02:22;;;;;;;2.10;0.70;;;23.20;52.70;;;;;;5075472;28;20723;-62
2022/06/21 13:04:56;;;;;;;1.52;0.70;;;23.20;52.80;;;;;;5075751;28;20267;-63
2022/06/21 13:08:00;;;;;;;1.30;0.77;;;23.10;52.80;;;;;;5075356;28;20182;-62
2022/06/21 13:10:37;;;;;;;0.90;0.70;;;23.10;52.80;;;;;;5075846;28;20167;-61
2022/06/21 13:13:15;;;;;;;1.15;0.75;;;23.10;52.80;;;;;;5074036;28;20179;-61
2022/06/21 13:15:54;;;;;;;0.50;0.50;;;23.10;52.80;;;;;;5075569;28;20220;-62
2022/06/21 13:18:46;;;;;;;2.13;0.70;;;23.10;52.90;;;;;;5074406;28;20171;-62
2022/06/21 13:21:13;;;;;;;1.65;0.70;;;23.10;52.90;;;;;;5051366;28;20256;-62
2022/06/21 13:24:00;;;;;;;1.60;1.13;;;23.00;52.90;;;;;;5075243;28;20214;-61
2022/06/21 13:26:55;;;;;;;1.00;0.60;;;23.10;52.90;;;;;;5074837;28;20180;-62
2022/06/21 13:29:38;;;;;;;1.75;0.70;;;23.00;52.90;;;;;;5074537;28;20178;-62
2022/06/21 13:32:06;;;;;;;1.48;0.60;;;23.00;52.90;;;;;;5074330;28;20253;-62
2022/06/21 13:34:50;;;;;;;1.38;0.70;;;23.00;53.50;;;;;;5073580;28;20205;-63
2022/06/21 13:37:27;;;;;;;1.13;0.63;;;23.00;52.90;;;;;;5074213;28;20182;-63
2022/06/21 13:40:08;;;;;;;0.77;0.63;;;23.00;52.90;;;;;;5073985;28;20181;-62
2022/06/21 13:43:08;;;;;;;0.85;0.52;;;23.00;52.90;;;;;;5073451;28;20211;-62
2022/06/21 13:45:52;;;;;;;0.60;0.60;;;23.00;52.90;;;;;;5071385;28;20174;-61
2022/06/21 13:48:41;;;;;;;0.70;0.52;;;23.00;52.90;;;;;;5073367;28;20177;-62
2022/06/21 13:51:13;;;;;;;0.80;0.60;;;23.00;52.90;;;;;;5073942;28;20225;-62
2022/06/21 13:54:03;;;;;;;1.20;0.80;;;23.00;52.90;;;;;;5074786;28;20201;-62
2022/06/21 13:57:13;;;;;;;0.70;0.57;;;23.00;52.90;;;;;;5072917;28;20178;-62